Time;durP1;ratioP1;P1;durP2;ratioP2;P2;SDS_P1;SDS_P2;PMS_P1;PMS_P2;Temp;Humidity;BMP_temperature;BMP_pressure;BME280_temperature;BME280_humidity;BME280_pressure;Samples;Min_cycle;Max_cycle;Signal;HPM_P1;HPM_P2
2023/04/09 00:00:25;;;;;;;;;;;;;;;18.79;56.53;102012.44;2261326;77;51517;-74
2023/04/09 00:03:27;;;;;;;;;;;;;;;18.78;56.59;102005.88;2294102;77;51526;-74
2023/04/09 00:06:28;;;;;;;;;;;;;;;18.75;56.63;102008.83;2260895;77;51392;-73
2023/04/09 00:09:30;;;;;;;;;;;;;;;18.72;56.67;102008.14;2236722;77;52370;-74
2023/04/09 00:12:32;;;;;;;;;;;;;;;18.68;56.73;102005.42;2261058;77;51635;-74
2023/04/09 00:15:34;;;;;;;;;;;;;;;18.67;56.88;102004.23;2293736;77;51514;-74
2023/04/09 00:18:35;;;;;;;;;;;;;;;18.71;56.82;102008.30;2308469;76;51516;-75
2023/04/09 00:21:37;;;;;;;;;;;;;;;18.77;56.63;102005.04;2264008;76;52342;-75
2023/04/09 00:24:38;;;;;;;;;;;;;;;18.78;56.55;102010.77;2299296;76;51524;-73
2023/04/09 00:27:40;;;;;;;;;;;;;;;18.80;56.50;102010.59;2299440;76;51427;-74
2023/04/09 00:30:42;;;;;;;;;;;;;;;18.77;56.51;102005.04;2333395;75;50251;-74
2023/04/09 00:33:43;;;;;;;;;;;;;;;18.75;56.57;102004.34;2299420;76;52376;-73
2023/04/09 00:36:45;;;;;;;;;;;;;;;18.73;56.61;102007.66;2299654;76;50615;-73
2023/04/09 00:39:46;;;;;;;;;;;;;;;18.69;56.73;102008.44;2300047;76;50005;-74
2023/04/09 00:42:48;;;;;;;;;;;;;;;18.67;56.75;101994.84;2332296;76;50708;-73
2023/04/09 00:45:50;;;;;;;;;;;;;;;18.64;56.88;102001.85;2274121;76;51472;-74
2023/04/09 00:48:53;;;;;;;;;;;;;;;18.64;56.96;102012.07;2331737;75;51508;-74
2023/04/09 00:51:54;;;;;;;;;;;;;;;18.69;56.88;102007.61;2312690;76;50377;-73
2023/04/09 00:54:56;;;;;;;;;;;;;;;18.75;56.74;102007.50;2305562;77;50032;-73
2023/04/09 00:57:57;;;;;;;;;;;;;;;18.79;56.59;101993.67;2286561;77;52260;-74
2023/04/09 01:00:59;;;;;;;;;;;;;;;18.80;56.57;101998.53;2286596;77;50542;-73
2023/04/09 01:04:01;;;;;;;;;;;;;;;18.79;56.55;102003.05;2305657;77;50256;-75
2023/04/09 01:07:21;;;;;;;;;;;;;;;18.79;56.53;102002.22;2305712;77;51487;-75
2023/04/09 01:10:30;;;;;;;;;;;;;;;18.76;56.57;102006.05;2286270;77;50157;-75
2023/04/09 01:13:36;;;;;;;;;;;;;;;18.72;56.63;102004.62;2305449;77;50662;-74
2023/04/09 01:16:38;;;;;;;;;;;;;;;18.70;56.68;102009.28;2305233;75;51464;-73
2023/04/09 01:19:50;;;;;;;;;;;;;;;18.67;56.75;102002.89;2317809;76;50297;-75
2023/04/09 01:22:56;;;;;;;;;;;;;;;18.65;56.87;102000.84;2304047;76;51446;-74
2023/04/09 01:26:05;;;;;;;;;;;;;;;18.67;56.92;101998.86;2305412;77;50436;-74
2023/04/09 01:29:07;;;;;;;;;;;;;;;18.74;56.74;102002.64;2305464;77;51866;-73
2023/04/09 01:32:09;;;;;;;;;;;;;;;18.78;56.57;102002.73;2305496;77;51426;-73
2023/04/09 01:35:10;;;;;;;;;;;;;;;18.81;56.51;101998.39;2285892;77;52330;-74
2023/04/09 01:38:12;;;;;;;;;;;;;;;18.79;56.50;102003.05;2286178;77;51598;-74
2023/04/09 01:41:14;;;;;;;;;;;;;;;18.79;56.55;101999.54;2286263;77;51445;-73
2023/04/09 01:44:16;;;;;;;;;;;;;;;18.77;56.55;102006.38;2305290;77;50323;-73
2023/04/09 01:47:17;;;;;;;;;;;;;;;18.75;56.53;102004.34;2285986;77;52338;-73
2023/04/09 01:50:19;;;;;;;;;;;;;;;18.70;56.59;102007.94;2330311;76;49974;-74
2023/04/09 01:53:21;;;;;;;;;;;;;;;18.69;56.59;102004.92;2345028;76;50236;-74
2023/04/09 01:56:23;;;;;;;;;;;;;;;18.66;56.71;102003.89;2344695;76;51470;-74
2023/04/09 01:59:24;;;;;;;;;;;;;;;18.68;56.72;102002.75;2352111;75;50872;-74
2023/04/09 02:02:30;;;;;;;;;;;;;;;18.76;56.60;102010.58;2352556;75;51553;-74
2023/04/09 02:05:33;;;;;;;;;;;;;;;18.78;56.46;102012.58;2345042;75;50687;-74
2023/04/09 02:08:35;;;;;;;;;;;;;;;18.80;56.37;102010.59;2345559;76;51482;-75
2023/04/09 02:11:37;;;;;;;;;;;;;;;18.80;56.35;102011.44;2345521;76;50760;-74
2023/04/09 02:14:39;;;;;;;;;;;;;;;18.79;56.35;102013.78;2345239;76;50385;-75
2023/04/09 02:17:40;;;;;;;;;;;;;;;18.78;56.34;102018.81;2341183;76;50627;-73
2023/04/09 02:20:42;;;;;;;;;;;;;;;18.74;56.37;102013.86;2335770;76;51429;-75
2023/04/09 02:23:43;;;;;;;;;;;;;;;18.72;56.37;102010.81;2325348;76;52533;-76
2023/04/09 02:26:45;;;;;;;;;;;;;;;18.71;56.42;102012.33;2352280;75;51595;-74
2023/04/09 02:29:46;;;;;;;;;;;;;;;18.66;56.52;102013.28;2345536;76;50227;-74
2023/04/09 02:32:48;;;;;;;;;;;;;;;18.67;56.58;102019.81;2352254;75;51514;-75
2023/04/09 02:35:50;;;;;;;;;;;;;;;18.75;56.44;102007.02;2325085;76;51756;-74
2023/04/09 02:38:52;;;;;;;;;;;;;;;18.79;56.31;102013.78;2352308;75;51417;-74
2023/04/09 02:41:53;;;;;;;;;;;;;;;18.82;56.18;102014.81;2352286;75;50595;-75
2023/04/09 02:44:55;;;;;;;;;;;;;;;18.83;56.17;102017.86;2345205;76;51443;-75
2023/04/09 02:47:56;;;;;;;;;;;;;;;18.83;56.19;102008.48;2347141;74;51686;-73
2023/04/09 02:50:58;;;;;;;;;;;;;;;18.81;56.20;102009.13;2315941;75;50242;-73
2023/04/09 02:54:00;;;;;;;;;;;;;;;18.79;56.19;102007.08;2273223;77;50630;-75
2023/04/09 02:57:01;;;;;;;;;;;;;;;18.77;56.21;102007.72;2274419;77;50757;-74
2023/04/09 03:00:04;;;;;;;;;;;;;;;18.72;56.25;102010.81;2249973;77;52471;-74
2023/04/09 03:03:05;;;;;;;;;;;;;;;18.70;56.25;102014.64;2274986;77;51434;-72
2023/04/09 03:06:07;;;;;;;;;;;;;;;18.70;56.33;102009.28;2295056;76;50273;-74
2023/04/09 03:09:08;;;;;;;;;;;;;;;18.75;56.24;102001.66;2295310;77;50459;-74
2023/04/09 03:12:10;;;;;;;;;;;;;;;18.79;56.12;102001.72;2284943;76;50692;-73
2023/04/09 03:15:12;;;;;;;;;;;;;;;18.81;56.04;102006.44;2297285;75;50661;-74
2023/04/09 03:18:13;;;;;;;;;;;;;;;18.83;55.98;102004.45;2273083;77;50635;-74
2023/04/09 03:21:15;;;;;;;;;;;;;;;18.82;55.98;101996.05;2294208;77;50576;-73
2023/04/09 03:24:16;;;;;;;;;;;;;;;18.82;55.99;102004.59;2247785;76;51597;-73
2023/04/09 03:27:18;;;;;;;;;;;;;;;18.80;56.01;101998.03;2294002;77;51446;-74
2023/04/09 03:30:20;;;;;;;;;;;;;;;18.77;56.04;101990.30;2294123;77;50709;-74
2023/04/09 03:33:21;;;;;;;;;;;;;;;18.75;56.13;101996.30;2272797;77;51493;-74
2023/04/09 03:36:23;;;;;;;;;;;;;;;18.72;56.12;101989.37;2272591;77;50080;-73
2023/04/09 03:39:24;;;;;;;;;;;;;;;18.68;56.16;101993.87;2293844;77;51538;-73
2023/04/09 03:42:27;;;;;;;;;;;;;;;18.70;56.23;101986.02;2308989;76;51393;-74
2023/04/09 03:45:29;;;;;;;;;;;;;;;18.70;56.24;101988.70;2293778;77;50179;-74
2023/04/09 03:48:30;;;;;;;;;;;;;;;18.78;56.04;101987.98;2252293;77;52329;-74
2023/04/09 03:51:32;;;;;;;;;;;;;;;18.82;55.90;101994.70;2286501;77;50184;-75
2023/04/09 03:54:33;;;;;;;;;;;;;;;18.83;55.86;101991.05;2305587;76;50230;-74
2023/04/09 03:57:35;;;;;;;;;;;;;;;18.83;55.89;101989.70;2305674;77;50013;-74
2023/04/09 04:00:37;;;;;;;;;;;;;;;18.83;55.92;101988.84;2286371;77;49852;-75
2023/04/09 04:03:38;;;;;;;;;;;;;;;18.78;55.97;101990.66;2286533;77;51537;-75
2023/04/09 04:06:40;;;;;;;;;;;;;;;18.76;56.05;101989.95;2305598;77;51433;-74
2023/04/09 04:09:41;;;;;;;;;;;;;;;18.73;56.12;101984.88;2306048;76;50716;-75
2023/04/09 04:12:43;;;;;;;;;;;;;;;18.72;56.11;101996.58;2299510;76;52514;-75
2023/04/09 04:15:45;;;;;;;;;;;;;;;18.73;56.17;101991.58;2351946;75;51497;-74
2023/04/09 04:18:46;;;;;;;;;;;;;;;18.72;56.23;101992.55;2344842;76;51378;-75
2023/04/09 04:21:48;;;;;;;;;;;;;;;18.74;56.26;101995.94;2344922;76;50289;-74
2023/04/09 04:24:49;;;;;;;;;;;;;;;18.80;56.02;101994.51;2351669;75;50794;-74
2023/04/09 04:27:51;;;;;;;;;;;;;;;18.81;55.83;101998.89;2344831;76;49941;-73
2023/04/09 04:30:52;;;;;;;;;;;;;;;18.81;55.72;102001.58;2351875;75;50625;-73
2023/04/09 04:33:54;;;;;;;;;;;;;;;18.79;55.67;102000.38;2351996;75;51650;-73
2023/04/09 04:36:56;;;;;;;;;;;;;;;18.77;55.67;102009.56;2352068;75;49686;-74
2023/04/09 04:39:57;;;;;;;;;;;;;;;18.74;55.67;102006.66;2352320;75;50644;-74
2023/04/09 04:42:59;;;;;;;;;;;;;;;18.71;55.64;102005.63;2335879;75;53571;-74
2023/04/09 04:46:00;;;;;;;;;;;;;;;18.68;55.66;102009.45;2344916;76;51418;-73
2023/04/09 04:49:02;;;;;;;;;;;;;;;18.67;55.71;102003.72;2344975;75;51382;-74
2023/04/09 04:52:04;;;;;;;;;;;;;;;18.70;55.63;102011.96;2344728;76;51472;-75
2023/04/09 04:55:06;;;;;;;;;;;;;;;18.75;55.48;102019.09;2351479;75;51418;-74
2023/04/09 04:58:07;;;;;;;;;;;;;;;18.77;55.33;102017.61;2351651;75;51485;-74
2023/04/09 05:01:09;;;;;;;;;;;;;;;18.81;55.20;102023.03;2351686;75;52367;-75
2023/04/09 05:04:10;;;;;;;;;;;;;;;18.85;55.03;102031.94;2344513;76;51526;-75
2023/04/09 05:07:12;;;;;;;;;;;;;;;18.86;54.98;102034.98;2351744;75;51473;-75
2023/04/09 05:10:14;;;;;;;;;;;;;;;18.84;54.95;102038.31;2344666;76;50219;-73
2023/04/09 05:13:15;;;;;;;;;;;;;;;18.82;54.95;102042.14;2336458;75;51652;-75
2023/04/09 05:16:17;;;;;;;;;;;;;;;18.78;55.00;102050.99;2351464;75;51506;-74
2023/04/09 05:19:19;;;;;;;;;;;;;;;18.76;54.99;102044.92;2344716;76;51509;-74
2023/04/09 05:22:21;;;;;;;;;;;;;;;18.73;55.05;102047.88;2351735;75;51451;-74
2023/04/09 05:25:22;;;;;;;;;;;;;;;18.70;55.09;102048.16;2324420;76;51023;-74
2023/04/09 05:28:24;;;;;;;;;;;;;;;18.69;55.11;102045.98;2344659;76;51567;-74
2023/04/09 05:31:26;;;;;;;;;;;;;;;18.71;55.08;102043.16;2344749;76;50700;-74
2023/04/09 05:34:27;;;;;;;;;;;;;;;18.75;54.96;102053.95;2351585;75;50337;-75
2023/04/09 05:37:29;;;;;;;;;;;;;;;18.81;54.79;102045.83;2351802;75;50686;-75
2023/04/09 05:40:30;;;;;;;;;;;;;;;18.84;54.65;102050.88;2343033;76;50252;-74
2023/04/09 05:43:32;;;;;;;;;;;;;;;18.84;54.60;102048.20;2331567;76;50261;-75
2023/04/09 05:46:34;;;;;;;;;;;;;;;18.83;54.57;102050.05;2351546;75;50206;-75
2023/04/09 05:49:35;;;;;;;;;;;;;;;18.82;54.60;102051.52;2346675;74;51156;-75
2023/04/09 05:52:37;;;;;;;;;;;;;;;18.77;54.65;102051.97;2333301;76;50634;-74
2023/04/09 05:55:38;;;;;;;;;;;;;;;18.75;54.69;102049.05;2332984;76;50252;-75
2023/04/09 05:58:40;;;;;;;;;;;;;;;18.71;54.75;102051.20;2333194;76;50408;-74
2023/04/09 06:01:42;;;;;;;;;;;;;;;18.69;54.82;102051.84;2311011;76;51140;-74
2023/04/09 06:04:43;;;;;;;;;;;;;;;18.70;54.80;102047.69;2333149;76;50292;-73
2023/04/09 06:07:45;;;;;;;;;;;;;;;18.75;54.66;102043.70;2333441;76;50706;-73
2023/04/09 06:10:46;;;;;;;;;;;;;;;18.78;54.60;102040.73;2328389;76;51406;-74
2023/04/09 06:13:48;;;;;;;;;;;;;;;18.82;54.47;102039.45;2246836;77;52586;-74
2023/04/09 06:16:50;;;;;;;;;;;;;;;18.84;54.37;102040.99;2296153;77;51536;-74
2023/04/09 06:19:51;;;;;;;;;;;;;;;18.85;54.34;102040.48;2301326;76;51513;-74
2023/04/09 06:22:53;;;;;;;;;;;;;;;18.83;54.34;102048.70;2265613;77;52334;-75
2023/04/09 06:25:54;;;;;;;;;;;;;;;18.81;54.35;102047.16;2297855;77;51377;-74
2023/04/09 06:28:56;;;;;;;;;;;;;;;18.78;54.42;102051.46;2298059;77;51429;-74
2023/04/09 06:31:58;;;;;;;;;;;;;;;18.74;54.48;102053.58;2298016;77;50656;-75
2023/04/09 06:35:00;;;;;;;;;;;;;;;18.71;54.55;102045.84;2297821;77;49998;-74
2023/04/09 06:38:01;;;;;;;;;;;;;;;18.72;54.60;102047.52;2293879;77;49921;-75
2023/04/09 06:41:05;;;;;;;;;;;;;;;18.77;54.48;102049.79;2293863;77;50755;-74
2023/04/09 06:44:06;;;;;;;;;;;;;;;18.77;54.46;102051.97;2298185;77;22309;-75
2023/04/09 06:47:08;;;;;;;;;;;;;;;18.82;54.29;102053.70;2293777;77;51559;-75
2023/04/09 06:50:09;;;;;;;;;;;;;;;18.90;54.15;102057.81;2327173;76;50672;-74
2023/04/09 06:53:11;;;;;;;;;;;;;;;18.93;54.05;102052.17;2309633;75;50303;-75
2023/04/09 06:56:13;;;;;;;;;;;;;;;18.93;54.04;102058.00;2305459;75;50390;-74
2023/04/09 06:59:15;;;;;;;;;;;;;;;18.92;54.06;102055.83;2286424;77;51457;-74
2023/04/09 07:02:17;;;;;;;;;;;;;;;18.89;54.10;102058.81;2286368;77;52545;-74
2023/04/09 07:05:18;;;;;;;;;;;;;;;18.90;54.14;102061.00;2286117;77;53354;-74
2023/04/09 07:08:21;;;;;;;;;;;;;;;18.86;54.20;102060.97;2286365;77;50686;-73
2023/04/09 07:11:23;;;;;;;;;;;;;;;18.83;54.25;102063.92;2305675;77;51486;-73
2023/04/09 07:14:25;;;;;;;;;;;;;;;18.81;54.35;102065.44;2260794;75;51204;-73
2023/04/09 07:17:26;;;;;;;;;;;;;;;18.83;54.34;102064.80;2286533;77;50353;-74
2023/04/09 07:20:28;;;;;;;;;;;;;;;18.89;54.23;102068.20;2319172;76;50366;-74
2023/04/09 07:23:30;;;;;;;;;;;;;;;18.92;54.15;102071.92;2352214;75;50734;-74
2023/04/09 07:26:32;;;;;;;;;;;;;;;19.00;54.24;102068.98;2351888;75;52443;-74
2023/04/09 07:29:33;;;;;;;;;;;;;;;19.06;54.17;102080.44;2352272;75;51464;-74
2023/04/09 07:32:35;;;;;;;;;;;;;;;19.07;54.09;102076.78;2352089;75;51532;-75
2023/04/09 07:35:37;;;;;;;;;;;;;;;19.03;54.08;102076.73;2344740;76;50770;-74
2023/04/09 07:38:38;;;;;;;;;;;;;;;18.98;54.17;102074.49;2352092;75;52487;-74
2023/04/09 07:41:40;;;;;;;;;;;;;;;18.95;54.29;102063.23;2345078;76;51483;-75
2023/04/09 07:44:42;;;;;;;;;;;;;;;18.95;54.34;102074.80;2344912;76;50715;-76
2023/04/09 07:47:44;;;;;;;;;;;;;;;18.93;54.41;102074.97;2351999;75;50407;-75
2023/04/09 07:50:45;;;;;;;;;;;;;;;18.97;54.47;102075.50;2326978;75;51339;-75
2023/04/09 07:53:47;;;;;;;;;;;;;;;19.02;54.34;102065.66;2333245;76;50621;-75
2023/04/09 07:56:48;;;;;;;;;;;;;;;19.06;54.32;102067.03;2333089;76;51451;-76
2023/04/09 07:59:50;;;;;;;;;;;;;;;19.05;54.22;102066.70;2333175;76;51429;-74
2023/04/09 08:02:52;;;;;;;;;;;;;;;19.04;54.27;102070.39;2338135;75;51665;-74
2023/04/09 08:05:53;;;;;;;;;;;;;;;19.06;54.37;102068.38;2337227;75;51597;-75
2023/04/09 08:08:55;;;;;;;;;;;;;;;19.06;54.37;102072.39;2333221;76;51431;-75
2023/04/09 08:11:56;;;;;;;;;;;;;;;19.05;54.41;102072.06;2337383;75;51543;-76
2023/04/09 08:14:58;;;;;;;;;;;;;;;19.05;54.40;102077.42;2310747;76;51191;-75
2023/04/09 08:18:02;;;;;;;;;;;;;;;19.05;54.49;102085.47;2330907;76;50212;-75
2023/04/09 08:21:05;;;;;;;;;;;;;;;19.04;54.50;102083.30;2285827;76;22478;-75
2023/04/09 08:24:06;;;;;;;;;;;;;;;19.06;54.45;102089.36;2293249;76;49877;-76
2023/04/09 08:27:08;;;;;;;;;;;;;;;19.09;54.43;102084.19;2272942;77;52347;-75
2023/04/09 08:30:10;;;;;;;;;;;;;;;19.09;54.42;102094.92;2293936;77;51401;-75
2023/04/09 08:33:12;;;;;;;;;;;;;;;19.08;54.43;102089.19;2273038;77;51557;-75
2023/04/09 08:36:13;;;;;;;;;;;;;;;19.03;54.47;102088.80;2293628;77;51472;-75
2023/04/09 08:39:18;;;;;;;;;;;;;;;19.01;54.55;102092.13;2247854;77;53465;-75
2023/04/09 08:42:19;;;;;;;;;;;;;;;18.98;54.59;102097.80;2273033;77;22388;-74
2023/04/09 08:45:21;;;;;;;;;;;;;;;18.94;54.66;102097.27;2293676;77;50718;-74
2023/04/09 08:48:22;;;;;;;;;;;;;;;18.91;54.72;102090.36;2272852;77;51548;-74
2023/04/09 08:51:24;;;;;;;;;;;;;;;18.90;54.77;102099.38;2282609;77;51614;-74
2023/04/09 08:54:26;;;;;;;;;;;;;;;18.92;54.79;102091.20;2296632;77;51437;-74
2023/04/09 08:57:27;;;;;;;;;;;;;;;18.96;54.72;102090.39;2296834;77;51480;-74
2023/04/09 09:00:29;;;;;;;;;;;;;;;18.97;54.67;102095.62;2296885;77;50368;-75
2023/04/09 09:03:31;;;;;;;;;;;;;;;18.98;54.62;102087.06;2275443;77;52597;-74
2023/04/09 09:06:34;;;;;;;;;;;;;;;18.97;54.64;102089.41;2275184;77;51476;-74
2023/04/09 09:09:37;;;;;;;;;;;;;;;18.96;54.65;102080.53;2319082;76;51548;-74
2023/04/09 09:12:40;;;;;;;;;;;;;;;18.93;54.68;102084.36;2325283;76;51417;-74
2023/04/09 09:15:41;;;;;;;;;;;;;;;18.90;54.74;102090.50;2340679;75;51267;-75
2023/04/09 09:18:43;;;;;;;;;;;;;;;18.88;54.77;102089.33;2340699;75;51515;-74
2023/04/09 09:21:47;;;;;;;;;;;;;;;18.84;54.80;102083.90;2336393;76;51480;-74
2023/04/09 09:24:50;;;;;;;;;;;;;;;18.83;54.86;102082.23;2336427;75;50675;-75
2023/04/09 09:27:51;;;;;;;;;;;;;;;18.85;54.85;102082.89;2340704;75;50673;-75
2023/04/09 09:30:53;;;;;;;;;;;;;;;18.90;54.77;102081.11;2336358;75;50308;-74
2023/04/09 09:33:55;;;;;;;;;;;;;;;18.92;54.67;102077.28;2336132;75;50606;-74
2023/04/09 09:36:56;;;;;;;;;;;;;;;18.92;54.65;102075.94;2336302;76;51550;-74
2023/04/09 09:39:58;;;;;;;;;;;;;;;18.90;54.66;102075.75;2327852;75;52511;-76
2023/04/09 09:43:00;;;;;;;;;;;;;;;18.89;54.68;102084.30;2303244;75;50638;-75
2023/04/09 09:46:02;;;;;;;;;;;;;;;18.87;54.71;102076.89;2296687;76;51524;-75
2023/04/09 09:49:03;;;;;;;;;;;;;;;18.84;54.71;102073.17;2296849;77;50462;-75
2023/04/09 09:52:09;;;;;;;;;;;;;;;18.80;54.74;102067.75;2302327;77;50314;-75
2023/04/09 09:55:13;;;;;;;;;;;;;;;18.79;54.80;102066.58;2286110;75;50435;-74
2023/04/09 09:58:16;;;;;;;;;;;;;;;18.78;54.83;102060.37;2305471;77;52370;-74
2023/04/09 10:01:18;;;;;;;;;;;;;;;18.79;54.84;102066.08;2286194;77;51844;-74
2023/04/09 10:04:19;;;;;;;;;;;;;;;18.83;54.75;102056.75;2285918;75;51227;-75
2023/04/09 10:07:21;;;;;;;;;;;;;;;18.85;54.61;102053.39;2305400;77;50298;-75
2023/04/09 10:10:23;;;;;;;;;;;;;;;18.85;54.51;102053.39;2327691;76;50420;-75
2023/04/09 10:13:28;;;;;;;;;;;;;;;18.85;54.50;102053.39;2286104;77;51696;-75
2023/04/09 10:16:29;;;;;;;;;;;;;;;18.84;54.50;102049.03;2305623;77;22720;-75
2023/04/09 10:19:30;;;;;;;;;;;;;;;18.82;54.54;102056.38;2305662;77;50753;-75
2023/04/09 10:22:32;;;;;;;;;;;;;;;18.80;54.56;102058.36;2305757;77;51631;-75
2023/04/09 10:25:34;;;;;;;;;;;;;;;18.77;54.55;102058.67;2305634;77;50255;-75
2023/04/09 10:28:39;;;;;;;;;;;;;;;18.75;54.58;102059.31;2306081;76;51527;-75
2023/04/09 10:31:59;;;;;;;;;;;;;;;18.73;54.64;102059.95;2307151;77;50441;-75
2023/04/09 10:35:02;;;;;;;;;;;;;;;18.76;54.63;102054.81;2307064;77;50790;-75
2023/04/09 10:38:05;;;;;;;;;;;;;;;18.80;54.52;102049.48;2310042;76;50757;-76
2023/04/09 10:41:07;;;;;;;;;;;;;;;18.83;54.33;102052.73;2303894;76;50906;-74
2023/04/09 10:44:30;;;;;;;;;;;;;;;18.85;54.25;102054.73;2306633;77;50703;-75
2023/04/09 10:47:32;;;;;;;;;;;;;;;18.85;54.21;102052.05;2286921;77;22347;-75
2023/04/09 10:50:35;;;;;;;;;;;;;;;18.84;54.21;102049.03;2305923;77;50730;-76
2023/04/09 10:53:36;;;;;;;;;;;;;;;18.82;54.22;102051.02;2240756;77;49662;-75
2023/04/09 10:56:38;;;;;;;;;;;;;;;18.80;54.28;102054.84;2264536;77;50340;-74
2023/04/09 10:59:49;;;;;;;;;;;;;;;18.77;54.34;102045.27;2297663;77;50253;-76
2023/04/09 11:03:00;;;;;;;;;;;;;;;18.76;54.35;102053.48;2296962;77;52497;-75
2023/04/09 11:06:07;;;;;;;;;;;;;;;18.74;54.39;102052.24;2296589;77;49694;-75
2023/04/09 11:09:08;;;;;;;;;;;;;;;18.76;54.40;102050.30;2276107;76;22799;-74
2023/04/09 11:12:12;;;;;;;;;;;;;;;18.79;54.22;102044.63;2325253;75;51538;-75
2023/04/09 11:15:17;;;;;;;;;;;;;;;18.83;54.07;102050.05;2335291;75;51402;-75
2023/04/09 11:18:22;;;;;;;;;;;;;;;18.84;54.02;102046.86;2314074;76;52390;-75
2023/04/09 11:21:30;;;;;;;;;;;;;;;18.83;54.02;102044.68;2340671;75;51531;-75
2023/04/09 11:24:41;;;;;;;;;;;;;;;18.82;54.00;102044.31;2336085;76;51544;-75
2023/04/09 11:27:44;;;;;;;;;;;;;;;18.80;54.01;102040.94;2340658;75;52212;-75
2023/04/09 11:30:48;;;;;;;;;;;;;;;18.78;54.04;102038.92;2340717;75;51491;-75
2023/04/09 11:33:50;;;;;;;;;;;;;;;18.76;54.06;102035.55;2336126;76;51532;-75
2023/04/09 11:36:52;;;;;;;;;;;;;;;18.74;54.11;102027.27;2340579;75;50665;-74
2023/04/09 11:39:54;;;;;;;;;;;;;;;18.73;54.14;102022.41;2326805;76;50626;-75
2023/04/09 11:42:56;;;;;;;;;;;;;;;18.74;54.13;102026.77;2278232;76;52294;-75
2023/04/09 11:45:57;;;;;;;;;;;;;;;18.80;54.01;102026.69;2275464;77;50693;-75
2023/04/09 11:48:59;;;;;;;;;;;;;;;18.83;53.85;102026.37;2296758;76;51236;-75
2023/04/09 11:52:02;;;;;;;;;;;;;;;18.85;53.79;102025.23;2296104;77;50362;-75
2023/04/09 11:55:04;;;;;;;;;;;;;;;18.84;53.73;102012.83;2294677;76;24384;-74
2023/04/09 11:58:06;;;;;;;;;;;;;;;18.83;53.77;102013.84;2264075;77;50399;-75
2023/04/09 12:01:08;;;;;;;;;;;;;;;18.82;53.81;102018.84;2294628;76;50909;-74
2023/04/09 12:04:09;;;;;;;;;;;;;;;18.78;53.82;102009.43;2294343;77;52345;-75
2023/04/09 12:07:11;;;;;;;;;;;;;;;18.77;53.83;102019.78;2239440;77;52603;-74
2023/04/09 12:10:13;;;;;;;;;;;;;;;18.74;53.89;102017.38;2299494;76;50416;-75
2023/04/09 12:13:15;;;;;;;;;;;;;;;18.74;53.94;102013.86;2302442;77;50250;-76
2023/04/09 12:16:20;;;;;;;;;;;;;;;18.75;53.95;102013.73;2248628;77;51521;-74
2023/04/09 12:19:23;;;;;;;;;;;;;;;18.79;53.80;102017.81;2276930;78;51480;-75
2023/04/09 12:22:24;;;;;;;;;;;;;;;18.80;53.71;102018.14;2277000;77;51497;-74
2023/04/09 12:25:27;;;;;;;;;;;;;;;18.81;53.67;102014.48;2246301;78;51395;-75
2023/04/09 12:28:28;;;;;;;;;;;;;;;18.79;53.66;102011.10;2246531;78;50072;-75
2023/04/09 12:31:30;;;;;;;;;;;;;;;18.77;53.69;102017.11;2277018;77;51463;-76
2023/04/09 12:34:31;;;;;;;;;;;;;;;18.77;53.69;102018.45;2246189;78;51150;-75
2023/04/09 12:37:33;;;;;;;;;;;;;;;18.74;53.72;102012.02;2276895;77;50226;-74
2023/04/09 12:40:35;;;;;;;;;;;;;;;18.73;53.75;102017.05;2246651;78;50618;-74
2023/04/09 12:43:37;;;;;;;;;;;;;;;18.70;53.82;102007.47;2300654;77;50781;-74
2023/04/09 12:46:38;;;;;;;;;;;;;;;18.70;53.88;102007.47;2281906;77;52464;-75
2023/04/09 12:49:44;;;;;;;;;;;;;;;18.74;53.83;102001.80;2257269;77;52458;-75
2023/04/09 12:52:43;;;;;;;;;;;;;;;18.79;53.70;101997.70;2275140;77;22232;-75
2023/04/09 12:55:45;;;;;;;;;;;;;;;18.81;53.61;101998.39;2291638;77;51486;-75
2023/04/09 12:58:47;;;;;;;;;;;;;;;18.84;53.54;101992.72;2295993;77;52556;-75
2023/04/09 13:01:48;;;;;;;;;;;;;;;18.82;53.52;101989.84;2296432;77;51397;-75
2023/04/09 13:04:51;;;;;;;;;;;;;;;18.81;53.55;101997.05;2296060;77;51391;-75
2023/04/09 13:07:53;;;;;;;;;;;;;;;18.79;53.62;101989.66;2292048;77;50316;-75
2023/04/09 13:10:54;;;;;;;;;;;;;;;18.79;53.64;101988.81;2296263;77;50912;-75
2023/04/09 13:13:56;;;;;;;;;;;;;;;18.76;53.73;101987.78;2259691;77;50260;-75
2023/04/09 13:16:58;;;;;;;;;;;;;;;18.72;53.79;101981.33;2291949;77;50211;-74
2023/04/09 13:20:00;;;;;;;;;;;;;;;18.74;53.87;101982.52;2291982;77;50273;-76
2023/04/09 13:23:01;;;;;;;;;;;;;;;18.77;53.87;101980.07;2270637;77;51243;-75
2023/04/09 13:26:03;;;;;;;;;;;;;;;18.79;53.80;101977.58;2296210;77;50292;-75
2023/04/09 13:29:05;;;;;;;;;;;;;;;18.79;53.80;101972.22;2296211;77;51474;-76
2023/04/09 13:32:06;;;;;;;;;;;;;;;18.79;53.81;101970.05;2292182;77;50531;-75
2023/04/09 13:35:09;;;;;;;;;;;;;;;18.78;53.83;101967.00;2296009;77;52526;-76
2023/04/09 13:38:11;;;;;;;;;;;;;;;18.77;53.86;101968.84;2291996;77;51575;-76
2023/04/09 13:41:14;;;;;;;;;;;;;;;18.77;53.93;101966.66;2296506;77;50348;-75
2023/04/09 13:44:15;;;;;;;;;;;;;;;18.75;53.93;101965.46;2292432;76;51392;-76
2023/04/09 13:47:17;;;;;;;;;;;;;;;18.73;53.95;101958.06;2270522;77;51614;-75
2023/04/09 13:50:18;;;;;;;;;;;;;;;18.74;54.03;101959.73;2292055;77;51567;-75
2023/04/09 13:53:23;;;;;;;;;;;;;;;18.77;54.06;101958.63;2301515;76;51526;-75
2023/04/09 13:56:24;;;;;;;;;;;;;;;18.80;54.03;101955.63;2282888;77;22336;-75
2023/04/09 13:59:25;;;;;;;;;;;;;;;18.82;54.00;101950.45;2257599;77;52367;-75
2023/04/09 14:02:28;;;;;;;;;;;;;;;18.82;54.01;101945.09;2282398;77;51482;-76
2023/04/09 14:05:31;;;;;;;;;;;;;;;18.83;53.95;101939.23;2313355;77;51483;-74
2023/04/09 14:08:33;;;;;;;;;;;;;;;18.81;53.97;101938.56;2313580;77;51633;-75
2023/04/09 14:11:35;;;;;;;;;;;;;;;18.81;53.98;101933.20;2280387;77;51102;-75
2023/04/09 14:14:36;;;;;;;;;;;;;;;18.80;54.07;101931.49;2276300;77;50261;-75
2023/04/09 14:17:39;;;;;;;;;;;;;;;18.79;54.09;101932.50;2282833;77;51484;-76
2023/04/09 14:20:41;;;;;;;;;;;;;;;18.79;54.12;101926.64;2313552;77;51438;-74
2023/04/09 14:23:42;;;;;;;;;;;;;;;18.78;54.18;101924.96;2281967;77;49854;-74
2023/04/09 14:26:44;;;;;;;;;;;;;;;18.82;54.18;101924.98;2313382;77;50236;-75
2023/04/09 14:29:46;;;;;;;;;;;;;;;18.85;54.16;101922.49;2282074;77;51471;-76
2023/04/09 14:32:47;;;;;;;;;;;;;;;18.85;54.15;101916.62;2313424;77;50006;-75
2023/04/09 14:35:49;;;;;;;;;;;;;;;18.84;54.16;101916.29;2282101;77;50364;-75
2023/04/09 14:38:51;;;;;;;;;;;;;;;18.85;54.19;101909.08;2282183;77;51577;-76
2023/04/09 14:41:53;;;;;;;;;;;;;;;18.84;54.25;101910.09;2280831;77;50190;-75
2023/04/09 14:44:55;;;;;;;;;;;;;;;18.82;54.30;101906.20;2307686;77;51610;-75
2023/04/09 14:47:57;;;;;;;;;;;;;;;18.81;54.37;101904.54;2260763;76;52328;-75
2023/04/09 14:50:58;;;;;;;;;;;;;;;18.79;54.44;101904.34;2285880;77;51500;-75
2023/04/09 14:54:00;;;;;;;;;;;;;;;18.81;54.45;101903.20;2293668;76;50614;-75
2023/04/09 14:57:02;;;;;;;;;;;;;;;18.83;54.48;101904.37;2282598;76;51585;-76
2023/04/09 15:00:04;;;;;;;;;;;;;;;18.84;54.47;101909.59;2246000;78;51708;-75
2023/04/09 15:03:06;;;;;;;;;;;;;;;18.86;54.46;101904.92;2282729;76;50266;-74
2023/04/09 15:06:07;;;;;;;;;;;;;;;18.87;54.45;101903.07;2270623;78;50657;-75
2023/04/09 15:09:09;;;;;;;;;;;;;;;18.85;54.51;101905.89;2282640;77;50265;-75
2023/04/09 15:12:10;;;;;;;;;;;;;;;18.84;54.53;101894.84;2257759;76;50066;-75
2023/04/09 15:15:13;;;;;;;;;;;;;;;18.84;54.54;101895.34;2307996;76;50409;-75
2023/04/09 15:18:15;;;;;;;;;;;;;;;18.82;54.73;101900.02;2335331;76;51555;-75
2023/04/09 15:21:17;;;;;;;;;;;;;;;18.82;54.68;101906.72;2335564;76;51517;-75
2023/04/09 15:24:19;;;;;;;;;;;;;;;18.82;54.63;101900.84;2335229;76;51267;-75
2023/04/09 15:27:20;;;;;;;;;;;;;;;18.83;54.64;101899.00;2321295;76;50269;-76
2023/04/09 15:30:22;;;;;;;;;;;;;;;18.84;54.67;101901.54;2321253;76;50289;-75
2023/04/09 15:33:26;;;;;;;;;;;;;;;18.84;54.67;101910.93;2335649;76;51462;-75